Time;durP1;ratioP1;P1;durP2;ratioP2;P2;SDS_P1;SDS_P2;PMS_P1;PMS_P2;Temp;Humidity;BMP_temperature;BMP_pressure;BME280_temperature;BME280_humidity;BME280_pressure;Samples;Min_cycle;Max_cycle;Signal;HPM_P1;HPM_P2
2021/12/06 00:01:06;;;;;;;1.05;1.05;;;;;;;1.11;100.00;98062.78;4878263;29;20104;-69
2021/12/06 00:03:47;;;;;;;2.95;1.58;;;;;;;1.08;100.00;98067.88;4878468;29;20052;-69
2021/12/06 00:06:15;;;;;;;1.65;1.55;;;;;;;1.02;100.00;98070.41;4874510;29;20029;-69
2021/12/06 00:08:40;;;;;;;3.10;1.77;;;;;;;1.06;100.00;98068.69;4870333;29;20128;-70
2021/12/06 00:11:08;;;;;;;1.25;1.25;;;;;;;1.06;100.00;98073.81;4878238;29;20103;-74
2021/12/06 00:13:39;;;;;;;0.90;0.90;;;;;;;1.05;100.00;98078.06;4878167;29;20040;-70
2021/12/06 00:16:09;;;;;;;1.15;1.15;;;;;;;1.02;100.00;98083.16;4877994;29;20483;-69
2021/12/06 00:18:35;;;;;;;;;;;;;;;0.93;100.00;98080.50;4878540;29;20021;-72
2021/12/06 00:21:02;;;;;;;1.45;1.35;;;;;;;1.00;100.00;98074.63;4878208;29;20073;-73
2021/12/06 00:23:28;;;;;;;0.60;0.60;;;;;;;0.98;100.00;98081.41;4878011;29;20123;-74
2021/12/06 00:25:54;;;;;;;1.52;1.48;;;;;;;1.03;100.00;98088.25;4878146;29;20112;-74
2021/12/06 00:28:20;;;;;;;1.80;1.13;;;;;;;1.07;100.00;98091.69;4877895;29;20040;-74
2021/12/06 00:30:45;;;;;;;2.47;1.77;;;;;;;1.07;100.00;98091.69;4878126;29;20099;-73
2021/12/06 00:33:10;;;;;;;1.00;1.00;;;;;;;0.96;100.00;98093.28;4878148;29;20501;-73
2021/12/06 00:35:36;;;;;;;0.77;0.77;;;;;;;0.99;100.00;98090.75;4877209;29;20112;-72
2021/12/06 00:38:01;;;;;;;1.90;1.80;;;;;;;0.95;100.00;98096.66;4866635;29;20029;-72
2021/12/06 00:40:36;;;;;;;5.05;1.48;;;;;;;0.99;100.00;98100.97;4876623;29;20021;-72
2021/12/06 00:43:04;;;;;;;1.30;1.13;;;;;;;1.08;100.00;98103.59;4878006;29;20080;-69
2021/12/06 00:45:30;;;;;;;1.23;1.23;;;;;;;1.01;100.00;98107.78;4878012;29;20379;-68
2021/12/06 00:47:55;;;;;;;0.88;0.88;;;;;;;1.03;100.00;98106.09;4877777;29;20037;-68
2021/12/06 00:50:24;;;;;;;0.80;0.80;;;;;;;1.06;100.00;98107.81;4877853;29;20092;-69
2021/12/06 00:52:50;;;;;;;1.58;1.40;;;;;;;1.25;100.00;98112.22;4878190;29;20035;-68
2021/12/06 00:55:17;;;;;;;0.98;0.98;;;;;;;1.10;100.00;98112.09;4877798;29;20475;-69
2021/12/06 00:57:42;;;;;;;3.92;2.42;;;;;;;0.99;100.00;98121.38;4877539;29;20501;-72
2021/12/06 05:15:56;;;;;;;0.95;0.95;;;;;;;1.67;97.32;98372.97;5651368;23;20044;-70
2021/12/06 05:18:22;;;;;;;2.83;2.10;;;;;;;1.48;98.12;98379.56;4899905;29;20427;-69
2021/12/06 05:20:47;;;;;;;1.75;1.55;;;;;;;1.31;98.88;98381.09;4899695;29;20111;-69
2021/12/06 05:23:13;;;;;;;2.58;2.35;;;;;;;1.71;99.95;98373.03;4899834;29;20107;-69
2021/12/06 05:25:39;;;;;;;1.27;1.27;;;;;;;1.65;100.00;98385.75;4895479;29;20039;-69
2021/12/06 05:28:05;;;;;;;0.70;0.70;;;;;;;1.59;99.90;98383.09;4880859;29;20044;-70
2021/12/06 05:30:32;;;;;;;2.33;1.95;;;;;;;1.49;99.51;98394.03;4881471;29;20383;-74
2021/12/06 05:33:00;;;;;;;2.28;2.17;;;;;;;1.55;100.00;98399.25;4880876;29;20084;-74
2021/12/06 05:35:26;;;;;;;2.15;2.05;;;;;;;1.50;99.35;98411.09;4880663;29;20125;-73
2021/12/06 05:37:56;;;;;;;1.77;1.67;;;;;;;1.47;99.00;98418.72;4877054;29;20092;-74
2021/12/06 05:40:29;;;;;;;1.52;1.45;;;;;;;1.63;99.24;98419.75;4917315;29;20450;-73
2021/12/06 05:42:55;;;;;;;1.58;1.48;;;;;;;1.59;99.47;98429.06;4918430;29;20035;-75
2021/12/06 05:45:23;;;;;;;3.13;2.17;;;;;;;1.59;99.62;98426.50;4918131;29;20028;-73
2021/12/06 05:47:49;;;;;;;1.40;1.40;;;;;;;1.67;100.00;98432.56;4918001;29;20030;-73
2021/12/06 05:50:16;;;;;;;1.00;1.00;;;;;;;1.68;100.00;98436.81;4918349;29;20088;-77
2021/12/06 05:52:41;;;;;;;1.30;1.27;;;;;;;1.68;99.85;98438.53;4918336;29;20044;-72
2021/12/06 05:55:09;;;;;;;1.23;1.23;;;;;;;1.68;100.00;98444.50;4917999;29;20036;-73
2021/12/06 05:57:36;;;;;;;1.73;1.63;;;;;;;1.60;99.87;98451.22;4917751;29;20477;-73
2021/12/06 06:00:05;;;;;;;2.13;1.98;;;;;;;1.60;99.95;98451.22;4917972;29;20042;-73
2021/12/06 06:02:31;;;;;;;3.28;2.65;;;;;;;1.65;100.00;98453.84;4917739;29;20028;-73
2021/12/06 06:04:56;;;;;;;2.30;1.67;;;;;;;1.59;99.58;98456.28;4918174;29;20050;-73
2021/12/06 06:07:21;;;;;;;3.70;2.40;;;;;;;1.64;100.00;98462.31;4905197;29;20040;-73
2021/12/06 06:09:46;;;;;;;2.25;1.92;;;;;;;1.97;100.00;98466.97;4904574;29;20024;-73
2021/12/06 06:12:12;;;;;;;3.60;2.45;;;;;;;2.06;99.34;98477.28;4898957;29;20032;-74
2021/12/06 06:14:38;;;;;;;1.80;1.73;;;;;;;1.73;98.37;98473.50;4898922;29;20036;-73
2021/12/06 06:17:14;;;;;;;1.75;1.65;;;;;;;1.56;98.71;98477.53;4898752;29;20059;-74
2021/12/06 06:19:45;;;;;;;2.53;1.58;;;;;;;1.52;99.20;98481.75;4899047;29;20025;-73
2021/12/06 06:22:12;;;;;;;2.40;2.05;;;;;;;1.71;99.70;98490.50;4898635;29;20077;-73
2021/12/06 06:24:37;;;;;;;1.38;1.38;;;;;;;1.68;99.23;98495.56;4898837;29;20441;-74
2021/12/06 06:27:03;;;;;;;1.08;1.05;;;;;;;1.59;98.80;98500.53;4898344;29;20032;-73
2021/12/06 06:29:29;;;;;;;2.03;1.92;;;;;;;1.46;99.05;98498.69;4898486;29;20128;-72
2021/12/06 06:31:55;;;;;;;3.58;3.28;;;;;;;1.49;99.19;98499.56;4898430;29;20056;-73
2021/12/06 06:34:20;;;;;;;2.42;1.77;;;;;;;1.28;99.50;98492.47;4898459;29;20020;-73
2021/12/06 06:36:46;;;;;;;3.10;2.90;;;;;;;1.38;99.96;98490.91;4903356;29;20020;-73
2021/12/06 06:39:12;;;;;;;2.35;1.85;;;;;;;1.45;99.52;98500.38;4909367;29;20075;-73
2021/12/06 06:41:37;;;;;;;3.70;3.05;;;;;;;1.43;99.71;98503.75;4917247;29;20036;-73
2021/12/06 06:44:03;;;;;;;2.47;2.05;;;;;;;1.35;99.74;98502.78;4917122;29;20035;-75
2021/12/06 06:46:29;;;;;;;2.38;2.17;;;;;;;1.28;99.79;98505.25;4917053;29;20032;-73
2021/12/06 06:48:56;;;;;;;2.03;1.90;;;;;;;1.27;99.71;98507.78;4917123;29;20024;-73
2021/12/06 06:51:23;;;;;;;2.00;1.90;;;;;;;1.82;100.00;98517.88;4916997;29;20471;-73
2021/12/06 06:53:48;;;;;;;2.97;1.73;;;;;;;1.73;99.93;98523.72;4917013;29;20032;-74
2021/12/06 06:56:14;;;;;;;1.73;1.63;;;;;;;1.70;99.87;98527.09;4916743;29;20028;-73
2021/12/06 06:58:39;;;;;;;1.85;1.75;;;;;;;1.70;99.23;98528.81;4916736;29;20028;-73
2021/12/06 07:01:05;;;;;;;1.88;1.77;;;;;;;1.63;98.98;98527.84;4917034;29;20034;-73
2021/12/06 07:03:31;;;;;;;2.88;2.40;;;;;;;1.55;99.26;98539.66;4916886;29;20032;-73
2021/12/06 07:05:58;;;;;;;2.38;2.00;;;;;;;1.63;99.27;98543.16;4913086;29;20024;-73
2021/12/06 07:08:24;;;;;;;1.35;1.23;;;;;;;1.74;99.59;98546.75;4907423;29;20027;-73
2021/12/06 07:10:50;;;;;;;3.15;2.15;;;;;;;2.00;100.00;98551.31;4916729;29;20393;-73
2021/12/06 07:13:16;;;;;;;2.58;2.13;;;;;;;1.89;98.26;98556.28;4916664;29;20035;-73
2021/12/06 07:15:42;;;;;;;2.47;2.00;;;;;;;1.89;99.24;98556.28;4916148;29;20036;-73
2021/12/06 07:18:07;;;;;;;1.75;1.70;;;;;;;1.82;99.11;98553.63;4916585;29;20111;-73
2021/12/06 07:20:34;;;;;;;2.55;2.35;;;;;;;1.82;99.33;98556.19;4916519;29;20028;-73
2021/12/06 07:23:00;;;;;;;2.45;2.25;;;;;;;2.11;100.00;98565.06;4916555;29;20035;-73
2021/12/06 07:25:27;;;;;;;2.78;2.58;;;;;;;2.12;99.47;98571.88;4916282;29;20478;-73
2021/12/06 07:27:53;;;;;;;1.70;1.60;;;;;;;2.04;97.91;98573.50;4916143;29;20043;-73
2021/12/06 07:30:20;;;;;;;2.92;2.70;;;;;;;1.99;97.77;98573.44;4916459;29;20036;-73
2021/12/06 07:32:45;;;;;;;3.67;1.88;;;;;;;1.99;97.84;98565.78;4916545;29;20031;-73
2021/12/06 07:35:12;;;;;;;1.83;1.73;;;;;;;1.88;98.79;98571.56;4916201;29;20030;-73
2021/12/06 07:37:39;;;;;;;2.92;2.72;;;;;;;2.05;98.67;98573.53;4907220;29;20024;-73
2021/12/06 07:40:07;;;;;;;3.92;2.45;;;;;;;2.10;99.76;98581.25;4911452;29;20474;-73
2021/12/06 07:42:33;;;;;;;3.03;2.28;;;;;;;2.40;98.00;98579.88;4916020;29;20497;-73
2021/12/06 07:44:58;;;;;;;5.28;2.80;;;;;;;2.42;97.23;98588.41;4916226;29;20103;-73
2021/12/06 07:47:23;;;;;;;2.92;2.28;;;;;;;2.40;97.60;98585.00;4915974;29;20035;-73
2021/12/06 07:49:49;;;;;;;5.07;3.22;;;;;;;2.33;98.05;98585.78;4916227;29;20024;-73
2021/12/06 07:52:15;;;;;;;3.45;3.15;;;;;;;2.33;97.36;98588.34;4916106;29;20043;-73
2021/12/06 07:54:40;;;;;;;4.97;2.50;;;;;;;2.51;96.15;98594.50;4916103;29;20482;-73
2021/12/06 07:57:07;;;;;;;5.55;2.35;;;;;;;2.47;95.10;98591.91;4915642;29;20029;-73
2021/12/06 07:59:33;;;;;;;2.65;2.55;;;;;;;2.23;95.71;98598.44;4915932;29;20024;-73
2021/12/06 08:01:59;;;;;;;2.67;2.47;;;;;;;2.13;96.52;98599.19;4915913;29;20023;-74
2021/12/06 08:04:24;;;;;;;2.17;2.00;;;;;;;2.11;96.75;98593.19;4915985;29;20333;-72
2021/12/06 08:06:50;;;;;;;5.55;2.70;;;;;;;2.05;97.66;98593.09;4905230;29;20032;-74
2021/12/06 08:09:15;;;;;;;2.33;2.20;;;;;;;2.38;97.26;98600.34;4904584;29;20032;-73
2021/12/06 08:11:42;;;;;;;5.50;2.90;;;;;;;2.43;96.47;98610.63;4896722;29;20047;-73
2021/12/06 08:14:08;;;;;;;2.25;1.45;;;;;;;2.61;95.59;98603.16;4897165;29;20036;-72
2021/12/06 08:16:38;;;;;;;4.15;3.80;;;;;;;2.65;94.93;98602.31;4896446;29;20479;-74
2021/12/06 08:19:05;;;;;;;1.88;1.77;;;;;;;2.82;95.13;98600.81;4897770;29;20108;-73
2021/12/06 08:21:30;;;;;;;3.50;3.22;;;;;;;2.87;95.23;98607.69;4900921;29;20031;-73
2021/12/06 08:23:59;;;;;;;1.58;1.58;;;;;;;2.99;94.36;98612.88;4900719;29;20115;-73
2021/12/06 08:26:29;;;;;;;2.72;2.63;;;;;;;2.98;93.79;98612.03;4900446;29;20032;-73
2021/12/06 08:28:57;;;;;;;3.50;3.22;;;;;;;2.93;93.42;98605.16;4900689;29;20402;-74
2021/12/06 08:31:23;;;;;;;3.20;3.05;;;;;;;2.93;93.56;98617.97;4900871;29;20033;-73
2021/12/06 08:33:49;;;;;;;2.72;2.53;;;;;;;2.91;93.65;98620.50;4900602;29;20024;-73
2021/12/06 08:36:16;;;;;;;3.38;2.72;;;;;;;2.90;93.81;98628.16;4901662;29;20028;-74
2021/12/06 08:38:42;;;;;;;3.42;3.03;;;;;;;3.01;92.23;98624.03;4911422;29;20024;-73
2021/12/06 08:41:15;;;;;;;3.05;2.78;;;;;;;2.91;91.80;98630.75;4918213;29;20094;-73
2021/12/06 08:43:42;;;;;;;3.10;2.80;;;;;;;2.72;92.96;98627.13;4919332;29;20115;-73
2021/12/06 08:46:13;;;;;;;3.58;3.22;;;;;;;2.94;93.88;98629.91;4919094;29;20489;-73
2021/12/06 08:48:40;;;;;;;2.50;2.30;;;;;;;2.82;93.71;98631.50;4919079;29;20480;-73
2021/12/06 08:51:13;;;;;;;3.90;3.53;;;;;;;2.98;91.86;98631.66;4919197;29;20039;-73
2021/12/06 08:53:40;;;;;;;5.47;4.40;;;;;;;2.91;92.12;98629.91;4919112;29;20039;-72
2021/12/06 08:56:06;;;;;;;5.68;3.05;;;;;;;2.77;93.15;98628.03;4918934;29;20115;-73
2021/12/06 08:58:32;;;;;;;1.73;1.63;;;;;;;2.88;93.01;98635.81;4918997;29;20062;-73
2021/12/06 09:00:57;;;;;;;3.42;2.35;;;;;;;2.43;94.27;98636.19;4917899;29;20024;-73
2021/12/06 09:03:23;;;;;;;3.88;3.35;;;;;;;2.54;94.58;98643.13;4919031;29;20028;-74
2021/12/06 09:05:53;;;;;;;7.18;3.35;;;;;;;2.76;93.64;98636.56;4916175;29;20470;-74
2021/12/06 09:08:19;;;;;;;2.08;1.98;;;;;;;2.81;93.32;98645.16;4909404;29;20236;-73
2021/12/06 09:10:49;;;;;;;4.05;3.70;;;;;;;2.87;93.25;98648.63;4918974;29;20044;-73
2021/12/06 09:13:16;;;;;;;3.22;3.03;;;;;;;2.69;93.71;98662.06;4918939;29;20414;-73
2021/12/06 09:15:41;;;;;;;4.15;3.83;;;;;;;2.55;94.01;98664.44;4917120;29;20038;-73
2021/12/06 09:18:07;;;;;;;4.72;3.47;;;;;;;2.24;94.75;98661.50;4918790;29;20103;-73
2021/12/06 09:20:37;;;;;;;2.17;1.98;;;;;;;2.43;95.00;98651.53;4917332;29;20504;-74
2021/12/06 09:23:05;;;;;;;3.83;3.47;;;;;;;2.53;94.99;98653.34;4918674;29;20091;-73
2021/12/06 09:25:32;;;;;;;3.80;2.90;;;;;;;2.57;94.98;98663.63;4918432;29;20519;-73
2021/12/06 09:27:58;;;;;;;4.20;3.80;;;;;;;2.83;93.90;98669.03;4918407;29;20028;-73
2021/12/06 09:30:27;;;;;;;5.53;3.30;;;;;;;2.89;93.31;98672.50;4918062;29;20032;-74
2021/12/06 09:32:54;;;;;;;3.15;2.42;;;;;;;3.13;91.37;98659.09;4918518;29;20441;-74
2021/12/06 09:35:25;;;;;;;3.72;2.53;;;;;;;2.98;91.77;98667.47;4918306;29;20470;-73
2021/12/06 09:37:51;;;;;;;3.28;3.08;;;;;;;3.02;91.73;98669.25;4907947;29;20032;-74
2021/12/06 09:40:17;;;;;;;3.63;3.35;;;;;;;2.91;91.97;98675.94;4916485;29;20032;-74
2021/12/06 09:42:45;;;;;;;3.25;2.95;;;;;;;3.18;92.63;98667.69;4918652;29;20039;-73
2021/12/06 09:45:18;;;;;;;2.80;2.55;;;;;;;3.40;91.26;98676.44;4918189;29;20063;-73
2021/12/06 09:47:50;;;;;;;4.13;3.83;;;;;;;3.27;92.12;98676.31;4918037;29;20024;-73
2021/12/06 09:50:16;;;;;;;3.17;2.85;;;;;;;3.52;89.49;98671.41;4918389;29;20083;-73
2021/12/06 09:52:42;;;;;;;3.17;2.97;;;;;;;3.44;90.19;98668.78;4918107;29;20137;-73
2021/12/06 09:55:08;;;;;;;6.72;4.95;;;;;;;3.72;89.11;98669.84;4918085;29;20118;-73
2021/12/06 09:57:34;;;;;;;3.70;3.40;;;;;;;3.61;89.54;98666.34;4917854;29;20042;-73
2021/12/06 09:59:59;;;;;;;3.70;2.67;;;;;;;3.76;88.42;98669.03;4918019;29;20389;-73
2021/12/06 10:02:26;;;;;;;3.20;3.00;;;;;;;3.85;88.22;98665.69;4917890;29;20028;-74
2021/12/06 10:04:54;;;;;;;3.03;2.65;;;;;;;3.82;88.06;98666.53;4917948;29;20035;-74
2021/12/06 10:07:21;;;;;;;3.35;3.08;;;;;;;3.83;87.70;98668.25;4911078;29;20053;-73
2021/12/06 10:09:47;;;;;;;7.60;4.88;;;;;;;4.01;87.04;98661.50;4911924;29;20028;-73
2021/12/06 10:12:16;;;;;;;2.13;2.00;;;;;;;4.05;87.19;98652.97;4917738;29;20036;-73
2021/12/06 10:14:42;;;;;;;5.78;4.35;;;;;;;4.04;86.64;98656.41;4917678;29;20028;-74
2021/12/06 10:17:08;;;;;;;5.78;3.47;;;;;;;3.97;87.12;98659.78;4917411;29;20123;-73
2021/12/06 10:19:34;;;;;;;5.65;3.80;;;;;;;4.05;86.96;98655.56;4917801;29;20063;-74
2021/12/06 10:22:00;;;;;;;4.95;4.55;;;;;;;4.03;87.25;98654.69;4916180;29;20024;-74
2021/12/06 10:24:29;;;;;;;5.22;3.08;;;;;;;3.82;88.05;98651.16;4917519;29;20051;-73
2021/12/06 10:27:02;;;;;;;2.80;1.60;;;;;;;3.95;86.99;98653.78;4917094;29;20028;-73
2021/12/06 10:29:33;;;;;;;2.28;2.17;;;;;;;3.80;87.70;98646.84;4917455;29;20276;-73
2021/12/06 10:31:58;;;;;;;4.93;4.40;;;;;;;3.86;88.75;98646.88;4917470;29;20030;-73
2021/12/06 10:34:27;;;;;;;5.95;3.63;;;;;;;3.77;87.77;98642.59;4917184;29;20028;-73
2021/12/06 10:36:54;;;;;;;3.92;3.63;;;;;;;3.84;88.14;98644.31;4926613;29;20035;-74
2021/12/06 10:39:21;;;;;;;2.75;1.90;;;;;;;4.02;86.83;98633.34;4909300;29;20024;-74
2021/12/06 10:41:49;;;;;;;3.33;2.53;;;;;;;3.99;86.15;98637.56;4916222;29;20505;-74
2021/12/06 10:44:14;;;;;;;4.50;2.83;;;;;;;3.43;88.41;98635.47;4917181;29;20062;-74
2021/12/06 10:46:51;;;;;;;3.80;2.03;;;;;;;3.49;87.96;98630.41;4916973;29;20064;-74
2021/12/06 10:49:20;;;;;;;9.13;3.78;;;;;;;3.58;89.55;98626.22;4917247;29;20419;-73
2021/12/06 10:51:46;;;;;;;9.30;4.55;;;;;;;3.95;86.72;98620.47;4917088;29;20028;-74
2021/12/06 10:54:21;;;;;;;2.90;2.22;;;;;;;3.81;86.62;98626.34;4916968;29;20055;-74
2021/12/06 10:56:51;;;;;;;19.20;6.80;;;;;;;4.00;86.75;98623.91;4915755;29;20021;-73
2021/12/06 10:59:26;;;;;;;8.05;5.93;;;;;;;3.94;86.74;98629.00;4917108;29;20024;-74
2021/12/06 11:01:54;;;;;;;5.93;4.75;;;;;;;3.99;86.09;98632.44;4916901;29;20056;-74
2021/12/06 11:04:25;;;;;;;4.63;3.97;;;;;;;3.84;86.75;98633.22;4916897;29;20404;-73
2021/12/06 11:06:53;;;;;;;2.70;2.50;;;;;;;4.19;85.84;98630.84;4911813;29;20024;-73
2021/12/06 11:09:24;;;;;;;2.25;2.05;;;;;;;4.38;84.01;98631.78;4907718;29;20386;-74
2021/12/06 11:11:58;;;;;;;1.45;1.38;;;;;;;4.14;84.45;98637.66;4916821;29;20032;-70
2021/12/06 11:14:40;;;;;;;2.90;2.70;;;;;;;3.44;86.81;98632.09;4916720;29;20024;-70
2021/12/06 11:17:09;;;;;;;1.98;1.88;;;;;;;3.99;86.53;98632.44;4916216;29;20028;-70
2021/12/06 11:19:36;;;;;;;2.47;2.20;;;;;;;3.80;86.61;98626.34;4916733;29;20443;-76
2021/12/06 11:22:18;;;;;;;2.67;2.42;;;;;;;3.74;86.32;98631.44;4916624;29;20036;-69
2021/12/06 11:24:48;;;;;;;3.03;2.80;;;;;;;3.86;87.58;98631.50;4916506;29;20031;-70
2021/12/06 11:27:29;;;;;;;3.25;3.05;;;;;;;4.07;86.44;98635.94;4916336;29;20032;-70
2021/12/06 11:30:11;;;;;;;2.05;1.95;;;;;;;3.59;86.14;98637.31;4916247;29;20072;-70
2021/12/06 11:32:43;;;;;;;2.05;1.95;;;;;;;3.47;87.38;98626.97;4917139;29;20490;-73
2021/12/06 11:35:16;;;;;;;2.50;2.30;;;;;;;3.94;87.45;98623.88;4916202;29;20032;-75
2021/12/06 11:37:46;;;;;;;2.35;2.15;;;;;;;3.89;86.58;98617.88;4906703;29;20381;-73
2021/12/06 11:40:24;;;;;;;2.88;2.60;;;;;;;2.95;88.07;98626.50;4913528;29;20058;-73
2021/12/06 11:43:00;;;;;;;2.22;2.08;;;;;;;3.50;88.37;98629.56;4916251;29;20422;-73
2021/12/06 11:45:55;;;;;;;2.13;1.98;;;;;;;3.66;87.02;98628.81;4915954;29;20060;-73
2021/12/06 11:48:26;;;;;;;3.25;2.40;;;;;;;3.98;86.54;98620.50;4914550;29;20040;-74
2021/12/06 11:50:54;;;;;;;5.82;3.55;;;;;;;4.36;84.25;98618.97;4916265;29;20028;-74
2021/12/06 11:53:30;;;;;;;2.78;2.58;;;;;;;4.55;83.77;98627.59;4916133;29;20043;-74
2021/12/06 11:56:00;;;;;;;2.40;2.25;;;;;;;4.48;82.00;98622.44;4915683;29;20031;-73
2021/12/06 11:58:31;;;;;;;1.73;1.63;;;;;;;4.36;82.32;98624.09;4916031;29;20020;-73
2021/12/06 12:01:17;;;;;;;5.30;2.55;;;;;;;4.50;82.88;98620.75;4915867;29;20028;-73
2021/12/06 12:03:46;;;;;;;1.98;1.77;;;;;;;4.47;82.09;98620.72;4915856;29;20482;-74
2021/12/06 12:06:22;;;;;;;5.78;3.28;;;;;;;4.64;81.24;98624.19;4910753;29;20029;-75
2021/12/06 12:08:48;;;;;;;3.05;2.78;;;;;;;4.17;82.87;98627.44;4907832;29;20028;-73
2021/12/06 12:11:13;;;;;;;2.90;2.65;;;;;;;4.58;82.35;98630.16;4915621;29;20406;-73
2021/12/06 12:13:38;;;;;;;5.32;2.83;;;;;;;4.51;83.17;98625.00;4915808;29;20039;-74
2021/12/06 12:16:07;;;;;;;3.55;1.98;;;;;;;5.04;80.02;98629.44;4915471;29;20035;-73
2021/12/06 12:18:35;;;;;;;2.58;2.08;;;;;;;5.12;80.21;98628.56;4915738;29;20474;-73
2021/12/06 12:21:01;;;;;;;1.90;1.80;;;;;;;5.40;79.55;98619.16;4915783;29;20039;-73
2021/12/06 12:23:32;;;;;;;2.75;2.13;;;;;;;5.61;77.90;98622.63;4915693;29;20087;-73
2021/12/06 12:26:04;;;;;;;3.95;3.40;;;;;;;5.94;75.78;98616.56;4915384;29;20056;-74
2021/12/06 12:28:47;;;;;;;3.08;2.53;;;;;;;5.47;76.99;98614.06;4915639;29;20035;-73
2021/12/06 12:31:13;;;;;;;3.63;3.28;;;;;;;5.64;76.55;98609.75;4915854;29;20450;-73
2021/12/06 12:33:39;;;;;;;2.72;2.47;;;;;;;5.64;76.38;98591.75;4915629;29;20092;-73
2021/12/06 12:36:10;;;;;;;3.08;2.85;;;;;;;6.01;74.80;98594.28;4910834;29;20040;-73
2021/12/06 12:38:37;;;;;;;4.30;3.95;;;;;;;6.38;73.89;98577.88;4907766;29;20119;-73
2021/12/06 12:41:11;;;;;;;8.73;2.17;;;;;;;6.86;72.99;98575.88;4915755;29;20035;-73
2021/12/06 12:43:43;;;;;;;8.85;3.70;;;;;;;6.77;71.59;98585.38;4915582;29;20054;-73
2021/12/06 12:46:10;;;;;;;5.70;3.92;;;;;;;6.82;70.43;98581.94;4915297;29;20054;-74
2021/12/06 12:48:52;;;;;;;6.72;2.80;;;;;;;6.86;70.62;98581.00;4915452;29;20143;-73
2021/12/06 12:51:22;;;;;;;2.80;2.10;;;;;;;6.76;71.08;98584.50;4915975;29;20087;-73
2021/12/06 12:53:55;;;;;;;6.78;2.75;;;;;;;7.01;70.37;98584.34;4915520;29;20024;-73
2021/12/06 12:56:42;;;;;;;2.55;1.90;;;;;;;6.13;71.98;98589.09;4915362;29;20028;-73
2021/12/06 12:59:29;;;;;;;2.30;2.15;;;;;;;5.61;73.36;98581.50;4915371;29;20025;-73
2021/12/06 13:02:19;;;;;;;2.47;2.13;;;;;;;5.80;74.41;98572.91;4915645;29;20103;-74
2021/12/06 13:04:57;;;;;;;4.57;2.15;;;;;;;6.17;74.50;98570.22;4915577;29;20035;-74
2021/12/06 13:07:25;;;;;;;2.17;2.00;;;;;;;5.70;75.13;98573.75;4911764;29;20032;-74
2021/12/06 13:09:51;;;;;;;2.20;1.90;;;;;;;5.71;74.82;98570.34;4912939;29;20043;-73
2021/12/06 13:12:17;;;;;;;2.22;2.13;;;;;;;5.75;74.80;98574.59;4918894;29;20032;-73
2021/12/06 13:14:55;;;;;;;2.58;2.20;;;;;;;5.45;76.00;98579.78;4918972;29;20035;-74
2021/12/06 13:17:30;;;;;;;5.70;3.40;;;;;;;5.30;76.23;98586.63;4918419;29;20091;-72
2021/12/06 13:20:11;;;;;;;3.63;2.33;;;;;;;5.02;77.24;98579.78;4918539;29;20389;-73
2021/12/06 13:22:46;;;;;;;3.05;2.63;;;;;;;4.67;79.46;98598.53;4913891;29;20411;-73
2021/12/06 13:25:15;;;;;;;2.10;2.00;;;;;;;4.63;80.84;98597.66;4899226;29;20043;-74
2021/12/06 13:27:59;;;;;;;2.90;2.70;;;;;;;4.22;81.63;98600.09;4899517;29;20040;-73
2021/12/06 13:30:31;;;;;;;5.13;3.35;;;;;;;4.16;83.08;98589.81;4899408;29;20032;-73
2021/12/06 13:33:18;;;;;;;3.08;2.88;;;;;;;4.12;83.44;98599.19;4899515;29;20029;-73
2021/12/06 13:35:52;;;;;;;3.78;3.03;;;;;;;4.33;82.14;98592.44;4899312;29;20402;-73
2021/12/06 13:38:36;;;;;;;3.63;3.25;;;;;;;4.31;82.35;98594.16;4908109;29;20056;-73
2021/12/06 13:41:02;;;;;;;2.08;1.98;;;;;;;4.42;82.51;98596.75;4918155;29;20035;-74
2021/12/06 13:43:43;;;;;;;5.32;2.33;;;;;;;4.15;83.52;98590.66;4912573;29;20494;-73
2021/12/06 13:46:20;;;;;;;11.00;2.67;;;;;;;4.15;84.09;98597.50;4906613;29;20108;-73
2021/12/06 13:48:48;;;;;;;1.95;1.85;;;;;;;3.98;84.40;98594.84;4918070;29;20042;-73
2021/12/06 13:51:34;;;;;;;5.55;3.10;;;;;;;3.86;85.11;98586.22;4917783;29;20035;-73
2021/12/06 13:54:04;;;;;;;4.47;3.22;;;;;;;3.88;85.56;98587.97;4918028;29;20048;-73
2021/12/06 13:56:43;;;;;;;1.88;1.77;;;;;;;3.94;85.40;98588.84;4917760;29;20047;-73
2021/12/06 13:59:10;;;;;;;4.00;3.27;;;;;;;3.88;85.63;98588.81;4917959;29;20062;-74
2021/12/06 14:01:38;;;;;;;1.83;1.73;;;;;;;3.93;86.40;98591.41;4917822;29;20032;-73
2021/12/06 14:04:06;;;;;;;5.10;2.72;;;;;;;3.94;85.03;98590.56;4932323;29;20167;-73
2021/12/06 14:07:02;;;;;;;4.68;3.50;;;;;;;3.78;85.80;98593.03;4911917;29;20059;-73
2021/12/06 14:09:30;;;;;;;2.45;2.22;;;;;;;3.75;86.19;98587.88;4887845;29;20095;-73
2021/12/06 14:12:00;;;;;;;7.10;3.83;;;;;;;3.75;86.62;98587.03;4917734;29;20107;-73
2021/12/06 14:14:28;;;;;;;3.17;2.45;;;;;;;3.77;86.94;98585.31;4913651;29;20024;-73
2021/12/06 14:16:55;;;;;;;3.03;2.40;;;;;;;3.81;86.39;98581.94;4908953;29;20036;-73
2021/12/06 14:19:25;;;;;;;2.88;2.58;;;;;;;3.72;86.74;98582.72;4917896;29;20032;-73
2021/12/06 14:21:52;;;;;;;3.78;2.83;;;;;;;3.64;86.67;98581.84;4917517;29;20032;-74
2021/12/06 14:24:18;;;;;;;4.03;2.33;;;;;;;3.64;86.89;98584.41;4916195;29;20040;-74
2021/12/06 14:26:44;;;;;;;3.33;1.95;;;;;;;3.48;87.11;98578.34;4917102;29;20490;-74
2021/12/06 14:29:16;;;;;;;3.35;2.65;;;;;;;3.52;87.36;98584.31;4916023;29;20028;-73
2021/12/06 14:31:44;;;;;;;1.83;1.67;;;;;;;3.56;87.69;98578.38;4917511;29;20028;-72
2021/12/06 14:34:11;;;;;;;3.33;3.00;;;;;;;3.51;88.10;98577.47;4917337;29;20363;-73
2021/12/06 14:36:36;;;;;;;2.47;1.73;;;;;;;3.47;88.79;98580.88;4911443;29;20028;-73
2021/12/06 14:39:12;;;;;;;13.05;2.83;;;;;;;3.43;87.50;98574.84;4909303;29;20032;-73
2021/12/06 14:41:51;;;;;;;12.85;1.77;;;;;;;3.51;87.82;98569.78;4917552;29;20039;-73
2021/12/06 14:44:40;;;;;;;2.13;2.03;;;;;;;3.48;87.75;98578.34;4914053;29;20035;-73
2021/12/06 14:47:08;;;;;;;3.92;3.60;;;;;;;3.47;88.37;98573.19;4912535;29;20730;-74
2021/12/06 14:49:34;;;;;;;1.52;1.42;;;;;;;3.42;88.89;98572.28;4916583;29;20040;-75
2021/12/06 14:52:21;;;;;;;3.80;2.88;;;;;;;3.33;89.28;98575.63;4916944;29;20078;-69
2021/12/06 14:55:32;;;;;;;2.40;2.25;;;;;;;3.47;88.99;98570.63;4916984;29;20167;-68
2021/12/06 14:58:01;;;;;;;3.67;2.53;;;;;;;3.31;88.66;98585.03;4916629;29;20028;-68
2021/12/06 15:00:43;;;;;;;2.40;2.20;;;;;;;3.29;89.08;98587.59;4917180;29;20031;-69
2021/12/06 15:03:12;;;;;;;2.35;2.10;;;;;;;3.28;89.32;98585.00;4916974;29;20495;-69
2021/12/06 15:05:42;;;;;;;1.40;1.40;;;;;;;3.37;89.52;98585.06;4915623;29;20028;-69
2021/12/06 15:08:23;;;;;;;3.45;3.15;;;;;;;3.33;89.15;98589.28;4905481;29;20120;-68
2021/12/06 15:10:56;;;;;;;6.57;3.30;;;;;;;3.24;89.76;98594.38;4879154;29;20475;-69
2021/12/06 15:13:23;;;;;;;3.70;2.63;;;;;;;3.16;90.57;98596.00;4883752;29;20040;-68
2021/12/06 15:15:53;;;;;;;2.88;2.63;;;;;;;3.16;90.44;98590.88;4907212;29;20028;-69
2021/12/06 15:18:20;;;;;;;;;;;;;;;3.07;90.59;98586.53;4916945;29;20044;-69
2021/12/06 15:20:46;;;;;;;2.50;2.30;;;;;;;3.01;91.35;98585.63;4916358;29;19954;-69
2021/12/06 15:23:16;;;;;;;2.38;2.20;;;;;;;2.96;91.65;98593.25;4916401;29;20509;-69
2021/12/06 15:25:45;;;;;;;3.35;3.05;;;;;;;2.92;91.79;98591.50;4916397;29;20165;-69
2021/12/06 15:28:10;;;;;;;2.20;2.03;;;;;;;2.90;91.99;98597.44;4916055;29;20032;-69
2021/12/06 15:30:36;;;;;;;2.78;2.58;;;;;;;2.92;91.57;98593.22;4910896;29;20438;-73
2021/12/06 15:33:10;;;;;;;4.40;3.53;;;;;;;2.87;91.56;98597.44;4903282;29;20438;-73
2021/12/06 15:35:43;;;;;;;3.25;3.03;;;;;;;2.93;91.33;98597.50;4904935;29;20036;-73
2021/12/06 15:38:28;;;;;;;3.65;2.85;;;;;;;2.95;91.16;98588.13;4904980;29;20072;-73
2021/12/06 15:41:00;;;;;;;5.80;4.05;;;;;;;2.98;91.68;98591.56;4916057;29;20039;-73
2021/12/06 15:43:41;;;;;;;2.10;2.00;;;;;;;2.90;91.70;98593.22;4913458;29;20028;-73
2021/12/06 15:46:08;;;;;;;2.70;2.50;;;;;;;2.79;91.67;98593.09;4907603;29;20043;-73
2021/12/06 15:48:37;;;;;;;2.30;2.20;;;;;;;2.79;91.93;98593.09;4915738;29;20032;-73
2021/12/06 15:51:25;;;;;;;6.38;2.35;;;;;;;2.69;92.08;98593.84;4915898;29;20032;-73
2021/12/06 15:54:00;;;;;;;4.40;2.53;;;;;;;2.66;91.66;98588.72;4915942;29;20520;-74
2021/12/06 15:56:26;;;;;;;2.05;1.83;;;;;;;2.66;92.14;98598.06;4915814;29;20473;-73
2021/12/06 15:58:59;;;;;;;2.10;2.00;;;;;;;2.59;92.28;98594.59;4915770;29;20047;-73
2021/12/06 16:01:25;;;;;;;1.98;1.88;;;;;;;2.63;90.62;98586.13;4915800;29;20035;-73
2021/12/06 16:03:50;;;;;;;1.70;1.60;;;;;;;2.63;91.08;98588.66;4915609;29;20386;-73
2021/12/06 16:06:18;;;;;;;2.25;1.95;;;;;;;2.82;88.35;98589.72;4909862;29;20033;-73
2021/12/06 16:08:47;;;;;;;1.50;1.40;;;;;;;2.87;85.81;98595.72;4907510;29;20028;-73